Terminal Aerodrome Forecast
Issued by NWS

Home | Current Version | Previous Version | Text Only | Print | Product List | Glossary On
Versions: 1 2 3 4 5 6 7 8 9 10 11 12 13 14
940
FTUS41 KPBZ 211136
TAFDUJ
TAF
KDUJ 211136Z 2112/2212 22006KT P6SM OVC008
     FM211400 21005KT 6SM -DZ VCSH OVC003
     FM211800 21005KT P6SM VCSH OVC008
     FM220300 21004KT 4SM -DZ BR VCSH OVC006=

USA.gov is the U.S. government's official web portal to all federal, state and local government web resources and services.